createdAt,value
2023-05-07T00:01:00.743Z,84.60
2023-05-07T00:03:27.992Z,83.26
2023-05-07T00:05:54.596Z,83.31
2023-05-07T00:08:21.564Z,83.49
2023-05-07T00:10:48.124Z,82.43
2023-05-07T00:13:14.731Z,83.19
2023-05-07T00:15:41.422Z,83.10
2023-05-07T00:18:08.056Z,82.76
2023-05-07T00:20:36.218Z,81.59
2023-05-07T00:23:03.078Z,81.14
2023-05-07T00:25:29.738Z,81.14
2023-05-07T00:27:56.312Z,80.04
2023-05-07T00:30:22.839Z,80.36
2023-05-07T00:32:50.023Z,79.22
2023-05-07T00:35:16.784Z,78.43
2023-05-07T00:37:43.354Z,78.23
2023-05-07T00:40:10.685Z,77.59
2023-05-07T00:42:37.756Z,78.12
2023-05-07T00:45:04.663Z,77.31
2023-05-07T00:47:32.120Z,76.89
2023-05-07T00:49:59.443Z,76.38
2023-05-07T00:52:27.081Z,75.41
2023-05-07T00:54:54.545Z,75.55
2023-05-07T00:57:22.429Z,75.69
2023-05-07T00:59:49.556Z,75.38
2023-05-07T01:02:16.315Z,75.29
2023-05-07T01:04:42.870Z,74.64
2023-05-07T01:07:10.637Z,73.23
2023-05-07T01:09:37.816Z,72.12
2023-05-07T01:12:05.232Z,71.75
2023-05-07T01:14:33.989Z,71.59
2023-05-07T01:17:00.930Z,71.29
2023-05-07T01:19:31.147Z,71.21
2023-05-07T01:22:04.558Z,71.36
2023-05-07T01:24:37.243Z,71.99
2023-05-07T01:27:05.576Z,72.23
2023-05-07T01:29:33.949Z,71.68
2023-05-07T01:32:01.801Z,72.02
2023-05-07T01:34:31.420Z,72.21
2023-05-07T01:37:00.332Z,72.08
2023-05-07T01:39:29.084Z,72.40
2023-05-07T01:42:00.607Z,72.00
2023-05-07T01:44:28.367Z,71.46
2023-05-07T01:46:55.939Z,71.91
2023-05-07T01:49:22.598Z,72.05
2023-05-07T01:51:49.372Z,71.83
2023-05-07T01:54:16.363Z,71.63
2023-05-07T01:56:42.987Z,70.53
2023-05-07T01:59:09.987Z,70.01
2023-05-07T02:01:36.621Z,69.60
2023-05-07T02:04:03.500Z,70.46
2023-05-07T02:06:31.683Z,70.99
2023-05-07T02:09:03.394Z,71.24
2023-05-07T02:11:29.912Z,71.52
2023-05-07T02:13:56.751Z,71.49
2023-05-07T02:16:24.141Z,71.13
2023-05-07T02:18:51.755Z,71.07
2023-05-07T02:21:18.371Z,71.99
2023-05-07T02:23:45.136Z,72.55
2023-05-07T02:26:12.106Z,72.17
2023-05-07T02:28:38.703Z,72.23
2023-05-07T02:31:06.889Z,71.74
2023-05-07T02:33:35.750Z,72.59
2023-05-07T02:36:10.878Z,72.89
2023-05-07T02:38:44.274Z,72.16
2023-05-07T02:41:10.822Z,72.91
2023-05-07T02:43:37.465Z,71.92
2023-05-07T02:46:08.654Z,72.30
2023-05-07T02:48:39.117Z,71.54
2023-05-07T02:51:06.409Z,70.98
2023-05-07T02:53:34.313Z,71.34
2023-05-07T02:56:02.170Z,71.00
2023-05-07T02:58:28.759Z,70.92
2023-05-07T03:00:58.352Z,71.37
2023-05-07T03:03:38.874Z,71.86
2023-05-07T03:06:05.680Z,71.88
2023-05-07T03:08:32.439Z,71.92
2023-05-07T03:10:59.130Z,72.08
2023-05-07T03:13:26.162Z,72.38
2023-05-07T03:15:53.120Z,72.48
2023-05-07T03:18:19.796Z,70.97
2023-05-07T03:20:47.169Z,72.45
2023-05-07T03:23:13.772Z,72.54
2023-05-07T03:25:40.442Z,72.74
2023-05-07T03:28:07.280Z,73.10
2023-05-07T03:30:48.983Z,72.79
2023-05-07T03:33:15.544Z,73.25
2023-05-07T03:35:42.376Z,72.38
2023-05-07T03:38:10.001Z,72.04
2023-05-07T03:40:38.170Z,72.27
2023-05-07T03:43:05.556Z,72.68
2023-05-07T03:45:35.287Z,71.69
2023-05-07T03:48:12.835Z,71.44
2023-05-07T03:50:39.510Z,71.13
2023-05-07T03:53:07.100Z,70.55
2023-05-07T03:55:38.055Z,70.21
2023-05-07T03:58:05.121Z,70.49
2023-05-07T04:00:34.507Z,71.07
2023-05-07T04:03:01.191Z,70.62
2023-05-07T04:05:31.434Z,70.63
2023-05-07T04:08:03.038Z,71.56
2023-05-07T04:10:36.697Z,71.76
2023-05-07T04:13:07.750Z,71.26
2023-05-07T04:15:36.518Z,71.04
2023-05-07T04:18:05.190Z,69.74
2023-05-07T04:20:35.557Z,69.73
2023-05-07T04:23:03.434Z,69.92
2023-05-07T04:25:30.532Z,69.28
2023-05-07T04:28:05.184Z,69.64
2023-05-07T04:30:32.653Z,69.21
2023-05-07T04:32:59.336Z,68.96
2023-05-07T04:35:28.805Z,70.34
2023-05-07T04:37:55.887Z,70.45
2023-05-07T04:40:22.458Z,71.32
2023-05-07T04:42:49.247Z,70.97
2023-05-07T04:45:16.070Z,70.49
2023-05-07T04:47:45.349Z,70.34
2023-05-07T04:50:13.042Z,70.69
2023-05-07T04:52:41.066Z,70.89
2023-05-07T04:55:08.460Z,70.51
2023-05-07T04:57:40.410Z,70.71
2023-05-07T05:00:09.609Z,70.25
2023-05-07T05:02:38.107Z,70.59
2023-05-07T05:05:06.073Z,69.43
2023-05-07T05:07:32.686Z,69.72
2023-05-07T05:09:59.891Z,69.05
2023-05-07T05:12:26.570Z,68.56
2023-05-07T05:14:53.380Z,68.22
2023-05-07T05:17:19.983Z,68.66
2023-05-07T05:19:46.630Z,68.25
2023-05-07T05:22:13.466Z,67.57
2023-05-07T05:24:39.968Z,66.51
2023-05-07T05:27:06.720Z,67.44
2023-05-07T05:29:33.297Z,67.75
2023-05-07T05:32:00.263Z,66.28
2023-05-07T05:34:28.623Z,66.80
2023-05-07T05:36:56.220Z,67.41
2023-05-07T05:39:24.149Z,67.65
2023-05-07T05:41:51.063Z,67.27
2023-05-07T05:44:17.811Z,68.47
2023-05-07T05:46:44.633Z,68.78
2023-05-07T05:49:11.204Z,69.22
2023-05-07T05:51:38.569Z,70.44
2023-05-07T05:54:05.634Z,71.39
2023-05-07T05:56:33.078Z,70.48
2023-05-07T05:58:59.789Z,72.09
2023-05-07T06:01:26.611Z,71.49
2023-05-07T06:03:55.129Z,71.43
2023-05-07T06:06:22.304Z,71.29
2023-05-07T06:08:48.906Z,71.23
2023-05-07T06:11:21.082Z,72.08
2023-05-07T06:13:47.634Z,71.54
2023-05-07T06:16:15.187Z,71.83
2023-05-07T06:18:41.802Z,72.30
2023-05-07T06:21:08.860Z,71.21
2023-05-07T06:23:36.130Z,70.78
2023-05-07T06:26:03.078Z,70.75
2023-05-07T06:28:37.956Z,70.82
2023-05-07T06:31:30.991Z,70.77
2023-05-07T06:34:07.126Z,71.44
2023-05-07T06:36:37.299Z,72.18
2023-05-07T06:39:15.710Z,72.42
2023-05-07T06:41:42.202Z,73.11
2023-05-07T06:44:17.174Z,73.10
2023-05-07T06:46:47.960Z,73.73
2023-05-07T06:49:15.512Z,73.15
2023-05-07T06:51:42.467Z,72.51
2023-05-07T06:54:09.103Z,72.25
2023-05-07T06:56:38.319Z,72.33
2023-05-07T06:59:05.981Z,72.21
2023-05-07T07:01:36.908Z,72.76
2023-05-07T07:04:04.880Z,72.81
2023-05-07T07:06:32.749Z,71.75
2023-05-07T07:09:01.502Z,71.67
2023-05-07T07:11:28.860Z,72.61
2023-05-07T07:13:55.654Z,72.52
2023-05-07T07:16:23.259Z,72.87
2023-05-07T07:18:52.085Z,72.87
2023-05-07T07:21:20.190Z,73.30
2023-05-07T07:23:47.126Z,73.21
2023-05-07T07:26:13.832Z,73.12
2023-05-07T07:28:45.634Z,72.66
2023-05-07T07:31:14.498Z,72.82
2023-05-07T07:33:41.555Z,73.82
2023-05-07T07:36:08.851Z,75.02
2023-05-07T07:38:36.346Z,75.27
2023-05-07T07:41:03.979Z,76.09
2023-05-07T07:43:30.896Z,77.26
2023-05-07T07:45:57.715Z,74.74
2023-05-07T07:48:24.983Z,71.94
2023-05-07T07:50:54.560Z,71.01
2023-05-07T07:53:21.480Z,71.57
2023-05-07T07:55:48.336Z,70.08
2023-05-07T07:58:18.038Z,70.63
2023-05-07T08:00:44.711Z,70.61
2023-05-07T08:03:13.249Z,69.72
2023-05-07T08:05:44.346Z,69.10
2023-05-07T08:08:11.162Z,70.32
2023-05-07T08:10:40.147Z,70.80
2023-05-07T08:13:13.889Z,70.04
2023-05-07T08:15:42.038Z,70.44
2023-05-07T08:18:08.809Z,71.16
2023-05-07T08:20:40.249Z,70.78
2023-05-07T08:23:09.665Z,70.31
2023-05-07T08:25:38.443Z,70.75
2023-05-07T08:28:06.042Z,72.01
2023-05-07T08:30:33.820Z,72.37
2023-05-07T08:33:01.497Z,71.64
2023-05-07T08:35:28.962Z,74.13
2023-05-07T08:37:55.641Z,73.46
2023-05-07T08:40:27.648Z,74.33
2023-05-07T08:42:57.902Z,74.04
2023-05-07T08:45:25.275Z,74.29
2023-05-07T08:47:59.143Z,73.61
2023-05-07T08:50:29.412Z,72.29
2023-05-07T08:52:57.446Z,73.14
2023-05-07T08:55:25.262Z,72.62
2023-05-07T08:57:53.581Z,72.84
2023-05-07T09:00:20.435Z,71.94
2023-05-07T09:02:50.530Z,70.72
2023-05-07T09:05:17.400Z,71.24
2023-05-07T09:07:44.177Z,70.34
2023-05-07T09:10:13.980Z,70.17
2023-05-07T09:12:42.312Z,68.68
2023-05-07T09:15:11.145Z,68.77
2023-05-07T09:17:38.603Z,69.67
2023-05-07T09:20:09.327Z,68.99
2023-05-07T09:22:38.066Z,69.71
2023-05-07T09:25:09.397Z,70.03
2023-05-07T09:27:38.299Z,70.07
2023-05-07T09:30:08.200Z,70.62
2023-05-07T09:32:38.843Z,71.05
2023-05-07T09:35:07.130Z,71.15
2023-05-07T09:37:34.584Z,70.83
2023-05-07T09:40:01.590Z,70.34
2023-05-07T09:42:30.654Z,70.37
2023-05-07T09:45:01.027Z,69.05
2023-05-07T09:47:34.219Z,70.17
2023-05-07T09:50:06.469Z,71.13
2023-05-07T09:52:36.155Z,68.42
2023-05-07T09:55:06.962Z,68.91
2023-05-07T09:57:35.691Z,70.56
2023-05-07T10:00:07.212Z,71.36
2023-05-07T10:02:50.585Z,72.56
2023-05-07T10:05:23.453Z,71.35
2023-05-07T10:07:51.950Z,71.34
2023-05-07T10:10:19.550Z,71.69
2023-05-07T10:12:48.337Z,70.05
2023-05-07T10:15:22.385Z,70.08
2023-05-07T10:17:54.610Z,69.72
2023-05-07T10:20:22.528Z,69.28
2023-05-07T10:22:51.689Z,69.70
2023-05-07T10:25:29.184Z,68.24
2023-05-07T10:28:00.627Z,69.20
2023-05-07T10:31:07.086Z,68.83
2023-05-07T10:33:40.591Z,66.17
2023-05-07T10:36:08.967Z,66.66
2023-05-07T10:38:36.102Z,67.17
2023-05-07T10:41:05.551Z,64.78
2023-05-07T10:43:42.839Z,64.69
2023-05-07T10:46:13.139Z,62.63
2023-05-07T10:49:01.378Z,65.88
2023-05-07T10:51:33.410Z,64.22
2023-05-07T10:54:10.978Z,63.19
2023-05-07T10:56:44.082Z,61.96
2023-05-07T10:59:21.913Z,61.54
2023-05-07T11:01:56.045Z,62.63
2023-05-07T11:04:32.491Z,62.20
2023-05-07T11:07:26.342Z,60.42
2023-05-07T11:10:05.300Z,62.73
2023-05-07T11:12:51.829Z,63.92
2023-05-07T11:15:38.602Z,62.88
2023-05-07T11:18:12.913Z,62.31
2023-05-07T11:20:58.350Z,61.86
2023-05-07T11:23:41.405Z,57.84
2023-05-07T11:26:16.550Z,60.19
2023-05-07T11:28:44.637Z,62.53
2023-05-07T11:31:12.574Z,61.29
2023-05-07T11:33:40.909Z,60.38
2023-05-07T11:36:12.258Z,61.20
2023-05-07T11:38:44.904Z,60.42
2023-05-07T11:41:11.493Z,58.96
2023-05-07T11:43:38.175Z,61.32
2023-05-07T11:46:12.608Z,61.50
2023-05-07T11:48:39.992Z,60.52
2023-05-07T11:51:09.867Z,62.85
2023-05-07T11:53:38.725Z,63.94
2023-05-07T11:56:09.240Z,60.66
2023-05-07T11:58:36.173Z,60.71
2023-05-07T12:01:02.715Z,59.22
2023-05-07T12:03:31.710Z,62.91
2023-05-07T12:06:00.575Z,59.34
2023-05-07T12:08:27.212Z,59.66
2023-05-07T12:10:55.001Z,57.55
2023-05-07T12:13:26.980Z,59.35
2023-05-07T12:15:55.190Z,62.21
2023-05-07T12:18:22.779Z,59.87
2023-05-07T12:20:50.124Z,59.09
2023-05-07T12:23:18.697Z,59.42
2023-05-07T12:25:48.489Z,58.45
2023-05-07T12:28:19.364Z,56.13
2023-05-07T12:30:51.298Z,57.84
2023-05-07T12:33:19.364Z,58.82
2023-05-07T12:35:45.923Z,56.50
2023-05-07T12:38:14.041Z,56.95
2023-05-07T12:40:43.389Z,57.52
2023-05-07T12:43:18.537Z,58.01
2023-05-07T12:45:47.370Z,58.32
2023-05-07T12:48:14.104Z,60.51
2023-05-07T12:50:41.025Z,59.64
2023-05-07T12:53:09.000Z,62.06
2023-05-07T12:55:47.529Z,61.55
2023-05-07T12:58:22.172Z,59.32
2023-05-07T13:00:50.815Z,58.25
2023-05-07T13:03:26.820Z,59.04
2023-05-07T13:05:58.837Z,60.32
2023-05-07T13:08:32.758Z,60.52
2023-05-07T13:11:01.331Z,60.36
2023-05-07T13:13:30.189Z,59.88
2023-05-07T13:15:58.514Z,60.88
2023-05-07T13:18:27.018Z,58.03
2023-05-07T13:20:56.660Z,60.84
2023-05-07T13:23:23.909Z,60.56
2023-05-07T13:25:51.356Z,60.26
2023-05-07T13:28:18.073Z,60.61
2023-05-07T13:30:45.121Z,58.43
2023-05-07T13:33:11.883Z,59.35
2023-05-07T13:35:38.634Z,59.40
2023-05-07T13:38:05.784Z,58.79
2023-05-07T13:40:32.513Z,60.35
2023-05-07T13:43:02.697Z,59.44
2023-05-07T13:45:33.173Z,60.10
2023-05-07T13:47:59.950Z,60.73
2023-05-07T13:50:28.021Z,60.62
2023-05-07T13:52:54.645Z,59.98
2023-05-07T13:55:23.368Z,58.65
2023-05-07T13:57:57.810Z,59.67
2023-05-07T14:00:25.326Z,58.27
2023-05-07T14:02:51.981Z,58.62
2023-05-07T14:05:18.996Z,59.12
2023-05-07T14:07:46.634Z,59.26
2023-05-07T14:10:14.233Z,60.88
2023-05-07T14:12:41.536Z,59.63
2023-05-07T14:15:08.716Z,60.67
2023-05-07T14:17:35.620Z,59.04
2023-05-07T14:20:02.234Z,60.64
2023-05-07T14:22:28.811Z,60.79
2023-05-07T14:25:05.886Z,61.05
2023-05-07T14:27:33.326Z,60.99
2023-05-07T14:29:59.826Z,61.26
2023-05-07T14:32:26.409Z,61.20
2023-05-07T14:34:52.976Z,61.46
2023-05-07T14:37:20.761Z,60.58
2023-05-07T14:39:49.861Z,60.78
2023-05-07T14:42:17.263Z,61.06
2023-05-07T14:44:45.585Z,59.95
2023-05-07T14:47:12.102Z,57.86
2023-05-07T14:49:38.920Z,59.48
2023-05-07T14:52:07.010Z,61.14
2023-05-07T14:54:38.912Z,61.08
2023-05-07T14:57:06.747Z,61.17
2023-05-07T14:59:33.444Z,60.58
2023-05-07T15:02:00.319Z,59.90
2023-05-07T15:04:26.993Z,59.90
2023-05-07T15:06:55.066Z,62.12
2023-05-07T15:09:21.624Z,65.17
2023-05-07T15:11:48.136Z,69.75
2023-05-07T15:14:14.700Z,75.59
2023-05-07T15:16:41.316Z,79.67
2023-05-07T15:19:07.967Z,82.00
2023-05-07T15:21:35.765Z,85.85
2023-05-07T15:24:02.987Z,90.74
2023-05-07T15:26:30.144Z,91.34
2023-05-07T15:28:59.740Z,95.75
2023-05-07T15:31:26.678Z,98.74
2023-05-07T15:33:53.372Z,100.00
2023-05-07T15:36:21.188Z,100.00
2023-05-07T15:38:47.774Z,100.00
2023-05-07T15:41:14.358Z,100.00
2023-05-07T15:43:46.913Z,100.00
2023-05-07T15:46:17.918Z,100.00
2023-05-07T15:48:44.541Z,100.00
2023-05-07T15:51:11.381Z,100.00
2023-05-07T15:53:38.585Z,100.00
2023-05-07T15:56:05.446Z,100.00
2023-05-07T15:58:32.094Z,100.00
2023-05-07T16:00:58.914Z,100.00
2023-05-07T16:03:27.537Z,100.00
2023-05-07T16:05:54.446Z,100.00
2023-05-07T16:08:21.175Z,100.00
2023-05-07T16:10:47.735Z,100.00
2023-05-07T16:13:14.494Z,100.00
2023-05-07T16:15:41.152Z,100.00
2023-05-07T16:18:07.822Z,100.00
2023-05-07T16:20:34.980Z,100.00
2023-05-07T16:23:02.056Z,100.00
2023-05-07T16:25:28.666Z,100.00
2023-05-07T16:27:55.880Z,100.00
2023-05-07T16:30:22.425Z,100.00
2023-05-07T16:32:49.070Z,100.00
2023-05-07T16:35:15.746Z,100.00
2023-05-07T16:37:42.444Z,100.00
2023-05-07T16:40:09.600Z,100.00
2023-05-07T16:42:36.918Z,100.00
2023-05-07T16:45:06.790Z,100.00
2023-05-07T16:47:33.466Z,100.00
2023-05-07T16:50:00.650Z,100.00
2023-05-07T16:52:28.937Z,100.00
2023-05-07T16:54:58.247Z,100.00
2023-05-07T16:57:25.564Z,100.00
2023-05-07T16:59:52.572Z,100.00
2023-05-07T17:02:19.711Z,100.00
2023-05-07T17:04:46.213Z,100.00
2023-05-07T17:07:12.861Z,100.00
2023-05-07T17:09:39.409Z,100.00
2023-05-07T17:12:05.986Z,100.00
2023-05-07T17:14:32.489Z,100.00
2023-05-07T17:16:59.104Z,100.00
2023-05-07T17:19:25.714Z,100.00
2023-05-07T17:21:52.275Z,100.00
2023-05-07T17:24:18.816Z,100.00
2023-05-07T17:26:47.769Z,100.00
2023-05-07T17:29:14.297Z,100.00
2023-05-07T17:31:41.104Z,100.00
2023-05-07T17:34:07.704Z,100.00
2023-05-07T17:36:34.242Z,100.00
2023-05-07T17:39:00.937Z,100.00
2023-05-07T17:41:27.532Z,100.00
2023-05-07T17:43:54.060Z,100.00
2023-05-07T17:46:20.950Z,100.00
2023-05-07T17:48:47.725Z,100.00
2023-05-07T17:51:14.258Z,100.00
2023-05-07T17:53:40.827Z,100.00
2023-05-07T17:56:07.373Z,100.00
2023-05-07T17:58:38.454Z,100.00
2023-05-07T18:01:14.443Z,100.00
2023-05-07T18:03:41.406Z,100.00
2023-05-07T18:06:10.087Z,100.00
2023-05-07T18:08:36.830Z,100.00
2023-05-07T18:11:05.691Z,100.00
2023-05-07T18:13:32.205Z,100.00
2023-05-07T18:15:58.788Z,100.00
2023-05-07T18:18:28.116Z,100.00
2023-05-07T18:20:54.983Z,100.00
2023-05-07T18:23:21.473Z,100.00
2023-05-07T18:25:48.046Z,100.00
2023-05-07T18:28:14.619Z,100.00
2023-05-07T18:30:41.301Z,100.00
2023-05-07T18:33:08.177Z,100.00
2023-05-07T18:35:34.984Z,100.00
2023-05-07T18:38:01.472Z,100.00
2023-05-07T18:40:28.069Z,100.00
2023-05-07T18:42:55.373Z,100.00
2023-05-07T18:45:21.970Z,100.00
2023-05-07T18:47:48.559Z,100.00
2023-05-07T18:50:16.362Z,100.00
2023-05-07T18:52:42.867Z,100.00
2023-05-07T18:55:11.610Z,100.00
2023-05-07T18:57:38.131Z,100.00
2023-05-07T19:00:06.622Z,99.41
2023-05-07T19:02:33.234Z,99.35
2023-05-07T19:04:59.797Z,97.24
2023-05-07T19:07:26.300Z,96.93
2023-05-07T19:10:19.115Z,95.30
2023-05-07T19:12:39.432Z,94.23
2023-05-07T19:15:06.577Z,93.21
2023-05-07T19:17:33.189Z,92.50
2023-05-07T19:19:59.738Z,92.02
2023-05-07T19:22:26.374Z,90.70
2023-05-07T19:24:53.607Z,90.07
2023-05-07T19:27:20.202Z,89.35
2023-05-07T19:29:47.040Z,87.83
2023-05-07T19:32:13.617Z,86.79
2023-05-07T19:34:40.234Z,86.81
2023-05-07T19:37:06.801Z,86.13
2023-05-07T19:39:33.362Z,86.61
2023-05-07T19:41:59.945Z,85.88
2023-05-07T19:44:26.499Z,85.00
2023-05-07T19:46:53.081Z,84.86
2023-05-07T19:49:19.700Z,83.79
2023-05-07T19:51:46.295Z,83.20
2023-05-07T19:54:12.951Z,82.36
2023-05-07T19:56:41.598Z,81.48
2023-05-07T19:59:08.439Z,80.68
2023-05-07T20:01:36.089Z,80.68
2023-05-07T20:04:02.650Z,81.36
2023-05-07T20:06:29.235Z,80.88
2023-05-07T20:08:55.777Z,81.64
2023-05-07T20:11:23.206Z,80.60
2023-05-07T20:13:49.872Z,79.48
2023-05-07T20:16:16.594Z,79.68
2023-05-07T20:18:43.232Z,78.96
2023-05-07T20:21:09.844Z,78.43
2023-05-07T20:23:36.395Z,79.08
2023-05-07T20:26:02.925Z,79.21
2023-05-07T20:28:29.800Z,78.85
2023-05-07T20:30:56.388Z,77.87
2023-05-07T20:33:22.937Z,77.02
2023-05-07T20:35:49.753Z,76.91
2023-05-07T20:38:16.341Z,76.23
2023-05-07T20:40:42.889Z,76.02
2023-05-07T20:43:09.455Z,75.95
2023-05-07T20:45:36.099Z,76.14
2023-05-07T20:48:03.036Z,76.22
2023-05-07T20:50:29.890Z,76.30
2023-05-07T20:52:56.483Z,75.59
2023-05-07T20:55:23.038Z,74.15
2023-05-07T20:57:49.582Z,74.12
2023-05-07T21:00:17.333Z,74.26
2023-05-07T21:02:45.249Z,74.17
2023-05-07T21:05:11.916Z,73.12
2023-05-07T21:07:38.505Z,72.35
2023-05-07T21:10:06.111Z,73.03
2023-05-07T21:12:32.722Z,72.42
2023-05-07T21:14:59.318Z,72.23
2023-05-07T21:17:25.953Z,72.40
2023-05-07T21:19:52.899Z,72.05
2023-05-07T21:22:19.402Z,72.15
2023-05-07T21:24:45.963Z,72.46
2023-05-07T21:27:12.518Z,71.70
2023-05-07T21:29:39.457Z,71.44
2023-05-07T21:32:06.239Z,71.97
2023-05-07T21:34:32.826Z,71.30
2023-05-07T21:36:59.378Z,70.75
2023-05-07T21:39:26.029Z,71.48
2023-05-07T21:41:52.672Z,71.57
2023-05-07T21:44:19.306Z,71.16
2023-05-07T21:46:45.922Z,71.50
2023-05-07T21:49:12.737Z,71.80
2023-05-07T21:51:39.313Z,71.22
2023-05-07T21:54:06.858Z,69.80
2023-05-07T21:56:33.386Z,70.13
2023-05-07T21:58:59.953Z,70.46
2023-05-07T22:01:26.532Z,70.20
2023-05-07T22:03:53.303Z,70.16
2023-05-07T22:06:22.060Z,69.83
2023-05-07T22:08:49.791Z,69.86
2023-05-07T22:11:16.689Z,69.38
2023-05-07T22:13:43.380Z,69.38
2023-05-07T22:16:09.979Z,68.69
2023-05-07T22:18:36.620Z,68.08
2023-05-07T22:21:03.336Z,68.50
2023-05-07T22:23:29.860Z,68.70
2023-05-07T22:25:56.384Z,68.36
2023-05-07T22:28:22.944Z,69.36
2023-05-07T22:30:51.120Z,69.61
2023-05-07T22:33:17.732Z,69.27
2023-05-07T22:35:44.293Z,69.53
2023-05-07T22:38:10.842Z,69.20
2023-05-07T22:40:37.419Z,69.21
2023-05-07T22:43:04.126Z,70.02
2023-05-07T22:45:30.780Z,69.71
2023-05-07T22:47:57.329Z,68.85
2023-05-07T22:50:24.008Z,69.05
2023-05-07T22:52:50.718Z,69.21
2023-05-07T22:55:17.415Z,68.89
2023-05-07T22:57:44.046Z,68.21
2023-05-07T23:00:11.800Z,67.58
2023-05-07T23:02:38.713Z,67.31
2023-05-07T23:05:05.553Z,66.37
2023-05-07T23:07:32.153Z,67.94
2023-05-07T23:09:58.912Z,67.76
2023-05-07T23:12:25.532Z,67.07
2023-05-07T23:14:52.088Z,67.73
2023-05-07T23:17:18.613Z,67.40
2023-05-07T23:19:45.156Z,66.76
2023-05-07T23:22:12.231Z,66.85
2023-05-07T23:24:39.140Z,66.27
2023-05-07T23:27:06.085Z,66.39
2023-05-07T23:29:32.925Z,66.83
2023-05-07T23:32:00.231Z,65.62
2023-05-07T23:34:26.990Z,66.10
2023-05-07T23:36:54.245Z,66.14
2023-05-07T23:39:20.904Z,66.40
2023-05-07T23:41:47.535Z,66.55
2023-05-07T23:44:16.304Z,67.02
2023-05-07T23:46:44.414Z,66.16
2023-05-07T23:49:11.104Z,65.90
2023-05-07T23:51:37.844Z,65.64
2023-05-07T23:54:04.876Z,66.24
2023-05-07T23:56:31.458Z,65.79
2023-05-07T23:58:58.182Z,65.72
